createdAt,value
2022-08-31T00:00:38.626Z,100356.72
2022-08-31T00:03:58.670Z,100353.97
2022-08-31T00:07:00.216Z,100369.00
2022-08-31T00:10:14.186Z,100372.47
2022-08-31T00:13:16.425Z,100363.13
2022-08-31T00:16:19.554Z,100364.22
2022-08-31T00:19:21.302Z,100367.03
2022-08-31T00:22:22.739Z,100365.00
2022-08-31T00:25:24.411Z,100361.38
2022-08-31T00:28:26.019Z,100362.53
2022-08-31T00:31:27.587Z,100359.84
2022-08-31T00:34:29.162Z,100361.75
2022-08-31T00:37:30.601Z,100362.22
2022-08-31T00:40:33.160Z,100363.78
2022-08-31T00:43:47.918Z,100349.53
2022-08-31T00:46:49.440Z,100359.84
2022-08-31T00:49:52.514Z,100353.88
2022-08-31T00:52:57.840Z,100365.50
2022-08-31T00:55:59.548Z,100374.50
2022-08-31T00:59:01.652Z,100393.97
2022-08-31T01:02:04.450Z,100438.84
2022-08-31T01:05:06.920Z,100439.91
2022-08-31T01:08:08.953Z,100441.66
2022-08-31T01:11:10.675Z,100424.00
2022-08-31T01:14:12.606Z,100422.16
2022-08-31T01:17:15.103Z,100425.91
2022-08-31T01:20:31.542Z,100428.88
2022-08-31T01:23:38.725Z,100428.94
2022-08-31T01:26:40.728Z,100436.69
2022-08-31T01:29:42.509Z,100442.84
2022-08-31T01:32:43.965Z,100448.44
2022-08-31T01:35:45.681Z,100434.13
2022-08-31T01:38:52.878Z,100444.19
2022-08-31T01:41:54.864Z,100444.31
2022-08-31T01:44:56.338Z,100455.94
2022-08-31T01:48:12.344Z,100442.53
2022-08-31T01:51:17.398Z,100436.09
2022-08-31T01:54:19.509Z,100440.13
2022-08-31T01:57:21.807Z,100440.84
2022-08-31T02:00:36.222Z,100432.09
2022-08-31T02:03:37.719Z,100436.25
2022-08-31T02:06:42.187Z,100439.47
2022-08-31T02:09:43.623Z,100438.66
2022-08-31T02:12:45.034Z,100429.34
2022-08-31T02:15:46.580Z,100434.22
2022-08-31T02:18:48.112Z,100427.41
2022-08-31T02:21:49.539Z,100429.63
2022-08-31T02:24:51.054Z,100432.88
2022-08-31T02:27:52.481Z,100430.78
2022-08-31T02:30:54.069Z,100444.47
2022-08-31T02:33:55.564Z,100442.63
2022-08-31T02:36:57.176Z,100449.75
2022-08-31T02:39:59.277Z,100447.97
2022-08-31T02:43:01.409Z,100454.53
2022-08-31T02:46:03.317Z,100454.19
2022-08-31T02:49:04.840Z,100450.91
2022-08-31T02:52:06.387Z,100437.13
2022-08-31T02:55:07.955Z,100442.78
2022-08-31T02:58:11.169Z,100449.66
2022-08-31T03:01:12.682Z,100454.63
2022-08-31T03:04:14.288Z,100457.22
2022-08-31T03:07:15.777Z,100451.25
2022-08-31T03:10:21.735Z,100442.19
2022-08-31T03:13:58.466Z,100446.38
2022-08-31T03:17:00.435Z,100454.69
2022-08-31T03:20:05.534Z,100459.22
2022-08-31T03:23:07.047Z,100458.06
2022-08-31T03:26:10.137Z,100462.81
2022-08-31T03:29:13.312Z,100452.50
2022-08-31T03:32:14.763Z,100448.66
2022-08-31T03:35:18.009Z,100449.63
2022-08-31T03:38:20.466Z,100457.44
2022-08-31T03:41:24.986Z,100457.34
2022-08-31T03:44:26.506Z,100454.34
2022-08-31T03:47:28.362Z,100455.56
2022-08-31T03:50:30.010Z,100456.66
2022-08-31T03:53:31.621Z,100462.22
2022-08-31T03:56:33.248Z,100459.31
2022-08-31T03:59:34.828Z,100461.84
2022-08-31T04:02:39.544Z,100471.59
2022-08-31T04:05:44.225Z,100476.00
2022-08-31T04:08:45.715Z,100476.19
2022-08-31T04:11:47.129Z,100488.25
2022-08-31T04:14:48.662Z,100478.16
2022-08-31T04:17:55.820Z,100481.22
2022-08-31T04:20:59.041Z,100480.81
2022-08-31T04:24:01.594Z,100478.97
2022-08-31T04:27:03.705Z,100487.81
2022-08-31T04:30:07.633Z,100481.47
2022-08-31T04:33:09.741Z,100485.66
2022-08-31T04:36:15.114Z,100483.47
2022-08-31T04:39:16.706Z,100486.06
2022-08-31T04:42:18.157Z,100493.81
2022-08-31T04:45:19.630Z,100486.63
2022-08-31T04:48:21.098Z,100483.81
2022-08-31T04:51:26.140Z,100488.22
2022-08-31T04:54:27.660Z,100490.88
2022-08-31T04:57:31.343Z,100495.22
2022-08-31T05:00:32.802Z,100499.16
2022-08-31T05:03:34.272Z,100497.69
2022-08-31T05:06:39.358Z,100499.47
2022-08-31T05:09:40.931Z,100502.66
2022-08-31T05:12:44.337Z,100506.16
2022-08-31T05:15:45.813Z,100505.25
2022-08-31T05:18:49.294Z,100505.38
2022-08-31T05:21:50.807Z,100507.56
2022-08-31T05:24:52.311Z,100502.97
2022-08-31T05:27:54.840Z,100500.28
2022-08-31T05:30:57.851Z,100502.81
2022-08-31T05:34:00.682Z,100499.84
2022-08-31T05:37:02.339Z,100499.47
2022-08-31T05:40:04.475Z,100508.00
2022-08-31T05:43:06.107Z,100518.47
2022-08-31T05:46:10.548Z,100517.34
2022-08-31T05:49:12.173Z,100523.19
2022-08-31T05:52:13.909Z,100528.41
2022-08-31T05:55:16.317Z,100528.63
2022-08-31T05:58:17.801Z,100536.81
2022-08-31T06:01:23.970Z,100542.50
2022-08-31T06:04:26.730Z,100539.56
2022-08-31T06:07:28.606Z,100535.91
2022-08-31T06:10:32.946Z,100531.38
2022-08-31T06:13:34.349Z,100533.34
2022-08-31T06:16:37.229Z,100536.53
2022-08-31T06:19:39.162Z,100530.91
2022-08-31T06:22:46.175Z,100545.19
2022-08-31T06:25:47.629Z,100543.38
2022-08-31T06:28:52.004Z,100547.25
2022-08-31T06:31:53.757Z,100551.84
2022-08-31T06:34:55.334Z,100545.03
2022-08-31T06:37:56.859Z,100554.44
2022-08-31T06:40:58.290Z,100552.78
2022-08-31T06:44:00.778Z,100556.91
2022-08-31T06:47:03.016Z,100564.94
2022-08-31T06:50:05.036Z,100576.53
2022-08-31T06:53:06.475Z,100579.38
2022-08-31T06:56:16.505Z,100607.06
2022-08-31T06:59:26.434Z,100612.72
2022-08-31T07:02:29.840Z,100628.19
2022-08-31T07:05:31.285Z,100634.44
2022-08-31T07:08:32.842Z,100637.03
2022-08-31T07:11:37.468Z,100644.31
2022-08-31T07:14:40.511Z,100652.78
2022-08-31T07:17:42.174Z,100655.66
2022-08-31T07:20:43.642Z,100656.16
2022-08-31T07:23:47.176Z,100656.91
2022-08-31T07:26:54.406Z,100658.91
2022-08-31T07:29:55.873Z,100672.59
2022-08-31T07:32:57.307Z,100664.41
2022-08-31T07:35:58.742Z,100670.59
2022-08-31T07:39:18.944Z,100677.63
2022-08-31T07:42:29.214Z,100691.72
2022-08-31T07:45:34.465Z,100684.47
2022-08-31T07:48:39.374Z,100690.53
2022-08-31T07:51:50.180Z,100697.88
2022-08-31T07:54:54.127Z,100698.56
2022-08-31T07:57:56.768Z,100700.13
2022-08-31T08:00:59.881Z,100707.16
2022-08-31T08:04:02.304Z,100696.75
2022-08-31T08:07:06.032Z,100705.97
2022-08-31T08:10:14.004Z,100713.75
2022-08-31T08:13:18.471Z,100709.72
2022-08-31T08:16:20.863Z,100717.56
2022-08-31T08:19:23.264Z,100704.88
2022-08-31T08:22:41.903Z,100709.13
2022-08-31T08:25:47.321Z,100710.06
2022-08-31T08:28:50.253Z,100706.97
2022-08-31T08:31:56.537Z,100715.41
2022-08-31T08:34:58.438Z,100718.13
2022-08-31T08:38:03.333Z,100723.97
2022-08-31T08:41:14.810Z,100721.78
2022-08-31T08:44:18.457Z,100737.03
2022-08-31T08:47:24.775Z,100725.25
2022-08-31T08:50:28.256Z,100734.28
2022-08-31T08:53:32.125Z,100734.38
2022-08-31T08:56:34.348Z,100740.28
2022-08-31T08:59:35.913Z,100734.88
2022-08-31T09:02:58.327Z,100744.72
2022-08-31T09:06:09.667Z,100734.69
2022-08-31T09:09:46.881Z,100736.72
2022-08-31T09:13:14.408Z,100733.13
2022-08-31T09:16:40.860Z,100732.72
2022-08-31T09:20:00.340Z,100738.63
2022-08-31T09:23:06.986Z,100735.56
2022-08-31T09:26:11.158Z,100735.31
2022-08-31T09:29:24.789Z,100730.53
2022-08-31T09:32:31.365Z,100730.66
2022-08-31T09:35:41.224Z,100725.03
2022-08-31T09:38:46.914Z,100729.28
2022-08-31T09:41:49.890Z,100728.75
2022-08-31T09:44:51.505Z,100732.06
2022-08-31T09:47:58.272Z,100730.34
2022-08-31T09:51:02.864Z,100734.13
2022-08-31T09:54:22.836Z,100735.69
2022-08-31T09:57:50.474Z,100728.31
2022-08-31T10:00:52.613Z,100736.88
2022-08-31T10:04:12.147Z,100731.06
2022-08-31T10:07:31.323Z,100728.47
2022-08-31T10:10:37.631Z,100716.19
2022-08-31T10:13:45.807Z,100720.72
2022-08-31T10:16:53.177Z,100713.16
2022-08-31T10:20:06.600Z,100715.63
2022-08-31T10:23:28.134Z,100714.31
2022-08-31T10:26:57.016Z,100699.22
2022-08-31T10:30:18.253Z,100709.25
2022-08-31T10:33:25.261Z,100699.97
2022-08-31T10:36:33.112Z,100697.47
2022-08-31T10:39:42.606Z,100704.06
2022-08-31T10:43:09.299Z,100695.56
2022-08-31T10:46:10.830Z,100706.53
2022-08-31T10:49:12.311Z,100691.53
2022-08-31T10:52:27.482Z,100700.69
2022-08-31T10:55:46.793Z,100688.31
2022-08-31T10:59:02.080Z,100694.38
2022-08-31T11:02:31.277Z,100692.91
2022-08-31T11:05:42.199Z,100697.50
2022-08-31T11:09:08.273Z,100692.25
2022-08-31T11:12:18.370Z,100703.75
2022-08-31T11:15:25.912Z,100707.59
2022-08-31T11:18:36.128Z,100705.03
2022-08-31T11:21:51.002Z,100709.63
2022-08-31T11:25:25.036Z,100702.09
2022-08-31T11:28:35.743Z,100705.81
2022-08-31T11:31:38.867Z,100702.81
2022-08-31T11:34:51.337Z,100696.38
2022-08-31T11:37:55.648Z,100697.84
2022-08-31T11:41:02.770Z,100698.16
2022-08-31T11:44:08.972Z,100694.09
2022-08-31T11:47:28.650Z,100696.66
2022-08-31T11:50:36.403Z,100697.78
2022-08-31T11:53:44.362Z,100692.34
2022-08-31T11:56:47.416Z,100683.72
2022-08-31T11:59:50.498Z,100686.22
2022-08-31T12:03:10.882Z,100686.88
2022-08-31T12:06:25.088Z,100679.28
2022-08-31T12:09:44.985Z,100685.91
2022-08-31T12:13:09.326Z,100677.34
2022-08-31T12:16:23.674Z,100679.41
2022-08-31T12:19:48.865Z,100683.69
2022-08-31T12:23:30.852Z,100695.94
2022-08-31T12:26:48.812Z,100692.09
2022-08-31T12:29:50.303Z,100684.19
2022-08-31T12:32:56.804Z,100684.50
2022-08-31T12:36:12.144Z,100683.50
2022-08-31T12:39:21.849Z,100688.03
2022-08-31T12:42:23.736Z,100670.47
2022-08-31T12:45:55.061Z,100672.31
2022-08-31T12:49:02.710Z,100673.25
2022-08-31T12:52:16.230Z,100675.31
2022-08-31T12:55:26.811Z,100665.19
2022-08-31T12:58:43.503Z,100659.94
2022-08-31T13:01:49.318Z,100651.56
2022-08-31T13:04:51.305Z,100663.50
2022-08-31T13:07:53.536Z,100649.81
2022-08-31T13:10:55.049Z,100644.53
2022-08-31T13:14:08.512Z,100641.84
2022-08-31T13:17:17.873Z,100627.16
2022-08-31T13:20:20.421Z,100632.31
2022-08-31T13:23:30.009Z,100623.72
2022-08-31T13:26:35.880Z,100619.63
2022-08-31T13:29:45.110Z,100606.16
2022-08-31T13:32:51.052Z,100604.50
2022-08-31T13:36:03.753Z,100590.50
2022-08-31T13:39:12.845Z,100596.31
2022-08-31T13:42:41.262Z,100596.00
2022-08-31T13:45:58.548Z,100593.03
2022-08-31T13:49:03.225Z,100591.06
2022-08-31T13:52:07.762Z,100594.03
2022-08-31T13:55:12.877Z,100583.81
2022-08-31T13:58:31.463Z,100586.91
2022-08-31T14:01:33.858Z,100582.59
2022-08-31T14:04:49.508Z,100575.63
2022-08-31T14:07:55.623Z,100578.56
2022-08-31T14:10:57.152Z,100582.41
2022-08-31T14:14:11.343Z,100577.72
2022-08-31T14:17:17.700Z,100575.41
2022-08-31T14:21:16.902Z,100570.78
2022-08-31T14:24:12.298Z,100569.47
2022-08-31T14:27:15.205Z,100560.47
2022-08-31T14:30:16.755Z,100555.69
2022-08-31T14:33:19.752Z,100552.28
2022-08-31T14:36:23.688Z,100546.84
2022-08-31T14:39:32.082Z,100539.44
2022-08-31T14:42:37.353Z,100540.50
2022-08-31T14:45:40.015Z,100532.06
2022-08-31T14:48:44.115Z,100524.16
2022-08-31T14:51:46.276Z,100524.72
2022-08-31T14:54:48.070Z,100529.84
2022-08-31T14:57:55.543Z,100535.13
2022-08-31T15:01:00.260Z,100532.97
2022-08-31T15:04:04.240Z,100534.53
2022-08-31T15:07:09.526Z,100538.41
2022-08-31T15:10:12.968Z,100537.06
2022-08-31T15:13:14.578Z,100539.03
2022-08-31T15:16:16.854Z,100538.19
2022-08-31T15:19:19.004Z,100534.13
2022-08-31T15:22:21.574Z,100539.69
2022-08-31T15:25:25.853Z,100538.19
2022-08-31T15:28:31.565Z,100531.88
2022-08-31T15:31:33.074Z,100535.94
2022-08-31T15:34:34.869Z,100534.69
2022-08-31T15:37:36.379Z,100535.63
2022-08-31T15:40:39.248Z,100534.81
2022-08-31T15:43:44.310Z,100533.84
2022-08-31T15:47:05.143Z,100534.47
2022-08-31T15:50:07.733Z,100531.94
2022-08-31T15:53:10.684Z,100531.03
2022-08-31T15:56:12.243Z,100537.88
2022-08-31T15:59:13.794Z,100526.38
2022-08-31T16:02:20.281Z,100529.75
2022-08-31T16:05:23.826Z,100527.84
2022-08-31T16:08:27.865Z,100521.00
2022-08-31T16:11:31.139Z,100519.09
2022-08-31T16:14:33.401Z,100508.47
2022-08-31T16:17:34.900Z,100505.47
2022-08-31T16:20:37.049Z,100510.84
2022-08-31T16:23:39.628Z,100503.78
2022-08-31T16:26:45.946Z,100501.97
2022-08-31T16:29:47.532Z,100492.84
2022-08-31T16:32:52.186Z,100493.06
2022-08-31T16:35:53.943Z,100493.72
2022-08-31T16:38:56.628Z,100491.53
2022-08-31T16:41:58.158Z,100495.69
2022-08-31T16:45:02.331Z,100493.47
2022-08-31T16:48:22.770Z,100495.72
2022-08-31T16:51:24.382Z,100491.44
2022-08-31T16:54:28.437Z,100496.09
2022-08-31T16:57:31.795Z,100495.03
2022-08-31T17:00:37.368Z,100497.34
2022-08-31T17:03:51.992Z,100496.88
2022-08-31T17:06:54.337Z,100489.22
2022-08-31T17:09:58.980Z,100491.34
2022-08-31T17:13:00.476Z,100492.91
2022-08-31T17:16:02.632Z,100490.28
2022-08-31T17:19:11.369Z,100489.66
2022-08-31T17:22:23.375Z,100492.53
2022-08-31T17:25:26.228Z,100500.34
2022-08-31T17:28:27.679Z,100495.13
2022-08-31T17:31:32.965Z,100502.00
2022-08-31T17:34:36.727Z,100497.00
2022-08-31T17:37:38.501Z,100495.09
2022-08-31T17:40:40.134Z,100506.47
2022-08-31T17:43:42.119Z,100501.47
2022-08-31T17:46:47.137Z,100511.88
2022-08-31T17:49:50.571Z,100517.34
2022-08-31T17:52:54.002Z,100509.69
2022-08-31T17:55:55.829Z,100521.06
2022-08-31T17:58:57.350Z,100518.53
2022-08-31T18:02:02.639Z,100523.22
2022-08-31T18:05:11.583Z,100530.91
2022-08-31T18:08:14.670Z,100527.34
2022-08-31T18:11:16.242Z,100528.06
2022-08-31T18:14:23.486Z,100532.97
2022-08-31T18:17:26.446Z,100540.00
2022-08-31T18:20:28.394Z,100544.59
2022-08-31T18:23:29.832Z,100548.19
2022-08-31T18:26:34.800Z,100553.41
2022-08-31T18:29:37.917Z,100559.69
2022-08-31T18:32:47.287Z,100554.50
2022-08-31T18:35:50.617Z,100554.78
2022-08-31T18:38:55.196Z,100562.06
2022-08-31T18:42:15.578Z,100563.72
2022-08-31T18:45:19.219Z,100570.09
2022-08-31T18:48:35.125Z,100566.63
2022-08-31T18:51:36.865Z,100573.97
2022-08-31T18:54:38.420Z,100582.69
2022-08-31T18:57:48.770Z,100586.19
2022-08-31T19:00:57.262Z,100586.28
2022-08-31T19:04:00.922Z,100586.72
2022-08-31T19:07:03.656Z,100585.59
2022-08-31T19:10:12.127Z,100575.38
2022-08-31T19:13:15.471Z,100579.34
2022-08-31T19:16:23.353Z,100585.28
2022-08-31T19:19:25.416Z,100586.72
2022-08-31T19:22:27.925Z,100572.00
2022-08-31T19:25:31.818Z,100573.03
2022-08-31T19:28:33.361Z,100573.00
2022-08-31T19:31:38.496Z,100572.06
2022-08-31T19:34:43.107Z,100571.44
2022-08-31T19:37:44.635Z,100573.47
2022-08-31T19:40:46.469Z,100572.06
2022-08-31T19:44:01.925Z,100571.94
2022-08-31T19:47:08.564Z,100575.03
2022-08-31T19:50:26.343Z,100572.94
2022-08-31T19:53:28.232Z,100571.78
2022-08-31T19:56:31.027Z,100570.06
2022-08-31T19:59:32.557Z,100563.47
2022-08-31T20:02:36.167Z,100567.75
2022-08-31T20:05:41.748Z,100562.06
2022-08-31T20:08:44.257Z,100564.84
2022-08-31T20:11:49.296Z,100565.50
2022-08-31T20:14:51.273Z,100558.88
2022-08-31T20:17:57.114Z,100568.16
2022-08-31T20:21:01.026Z,100568.91
2022-08-31T20:24:06.242Z,100569.88
2022-08-31T20:27:10.446Z,100562.50
2022-08-31T20:30:13.603Z,100568.75
2022-08-31T20:33:15.772Z,100563.50
2022-08-31T20:36:20.495Z,100566.66
2022-08-31T20:39:25.123Z,100559.66
2022-08-31T20:42:27.328Z,100557.72
2022-08-31T20:45:28.790Z,100555.03
2022-08-31T20:48:49.076Z,100562.16
2022-08-31T20:51:51.702Z,100558.72
2022-08-31T20:55:01.465Z,100566.56
2022-08-31T20:58:05.522Z,100564.88
2022-08-31T21:01:07.747Z,100570.19
2022-08-31T21:04:09.369Z,100576.28
2022-08-31T21:07:12.278Z,100565.91
2022-08-31T21:10:14.361Z,100569.31
2022-08-31T21:13:16.736Z,100564.38
2022-08-31T21:16:19.491Z,100561.13
2022-08-31T21:19:22.751Z,100568.97
2022-08-31T21:22:25.788Z,100563.25
2022-08-31T21:25:27.364Z,100566.34
2022-08-31T21:28:29.604Z,100570.41
2022-08-31T21:31:31.228Z,100563.84
2022-08-31T21:34:33.786Z,100566.38
2022-08-31T21:37:35.402Z,100569.16
2022-08-31T21:40:37.053Z,100563.56
2022-08-31T21:43:39.808Z,100558.22
2022-08-31T21:46:41.588Z,100559.69
2022-08-31T21:49:44.528Z,100556.22
2022-08-31T21:52:45.972Z,100558.47
2022-08-31T21:55:47.421Z,100556.31
2022-08-31T21:58:50.001Z,100563.22
2022-08-31T22:01:59.008Z,100564.63
2022-08-31T22:05:00.689Z,100567.38
2022-08-31T22:08:02.465Z,100562.16
2022-08-31T22:11:08.868Z,100565.22
2022-08-31T22:14:12.236Z,100569.09
2022-08-31T22:17:14.675Z,100570.75
2022-08-31T22:20:17.662Z,100578.84
2022-08-31T22:23:20.141Z,100563.47
2022-08-31T22:26:24.414Z,100570.00
2022-08-31T22:29:29.242Z,100571.34
2022-08-31T22:32:30.652Z,100569.53
2022-08-31T22:35:37.823Z,100572.09
2022-08-31T22:38:39.764Z,100568.91
2022-08-31T22:41:41.654Z,100576.56
2022-08-31T22:44:43.623Z,100570.25
2022-08-31T22:47:49.774Z,100572.28
2022-08-31T22:50:51.780Z,100577.59
2022-08-31T22:53:53.284Z,100582.72
2022-08-31T22:56:55.202Z,100580.59
2022-08-31T22:59:56.699Z,100574.31
2022-08-31T23:02:59.242Z,100577.00
2022-08-31T23:06:01.381Z,100574.34
2022-08-31T23:09:06.873Z,100571.56
2022-08-31T23:12:08.716Z,100566.97
2022-08-31T23:15:12.804Z,100560.94
2022-08-31T23:18:14.292Z,100563.91
2022-08-31T23:21:17.917Z,100562.75
2022-08-31T23:24:23.654Z,100566.97
2022-08-31T23:27:25.338Z,100565.41
2022-08-31T23:30:27.195Z,100566.84
2022-08-31T23:33:29.345Z,100560.50
2022-08-31T23:36:31.821Z,100557.72
2022-08-31T23:39:34.702Z,100556.81
2022-08-31T23:42:41.032Z,100551.19
2022-08-31T23:45:42.679Z,100554.19
2022-08-31T23:48:44.103Z,100558.38
2022-08-31T23:51:46.194Z,100553.41
2022-08-31T23:54:49.825Z,100556.75
2022-08-31T23:57:51.698Z,100548.31
